createdAt,value
2023-05-08T00:01:13.167Z,8.72
2023-05-08T00:06:14.800Z,8.68
2023-05-08T00:11:16.460Z,8.64
2023-05-08T00:16:18.173Z,8.60
2023-05-08T00:21:19.917Z,8.64
2023-05-08T00:26:21.837Z,8.64
2023-05-08T00:31:24.113Z,8.60
2023-05-08T00:36:26.082Z,8.54
2023-05-08T00:41:27.875Z,8.52
2023-05-08T00:46:30.385Z,8.45
2023-05-08T00:51:32.711Z,8.44
2023-05-08T00:56:37.410Z,8.30
2023-05-08T01:01:40.804Z,8.30
2023-05-08T01:06:42.437Z,8.24
2023-05-08T01:12:09.974Z,8.12
2023-05-08T01:17:26.829Z,8.11
2023-05-08T01:22:49.797Z,8.05
2023-05-08T01:28:13.686Z,8.05
2023-05-08T01:33:30.545Z,7.99
2023-05-08T01:38:51.107Z,7.96
2023-05-08T01:44:03.922Z,7.98
2023-05-08T01:49:09.577Z,7.95
2023-05-08T01:54:16.585Z,7.90
2023-05-08T01:59:21.967Z,7.83
2023-05-08T02:04:25.092Z,7.88
2023-05-08T02:09:29.414Z,7.84
2023-05-08T02:14:32.844Z,7.78
2023-05-08T02:19:36.352Z,7.74
2023-05-08T02:24:38.827Z,7.71
2023-05-08T02:29:40.645Z,7.71
2023-05-08T02:34:54.863Z,7.69
2023-05-08T02:40:04.224Z,7.59
2023-05-08T02:45:07.483Z,7.63
2023-05-08T02:50:18.421Z,7.64
2023-05-08T02:55:36.319Z,7.61
2023-05-08T03:00:45.349Z,7.58
2023-05-08T03:06:12.033Z,7.54
2023-05-08T03:11:21.728Z,7.48
2023-05-08T03:16:25.992Z,7.44
2023-05-08T03:21:30.473Z,7.46
2023-05-08T03:26:32.364Z,7.49
2023-05-08T03:31:35.380Z,7.47
2023-05-08T03:36:38.355Z,7.46
2023-05-08T03:41:40.429Z,7.63
2023-05-08T03:46:42.861Z,8.10
2023-05-08T03:51:44.737Z,8.74
2023-05-08T03:56:47.896Z,9.21
2023-05-08T04:02:10.148Z,9.29
2023-05-08T04:07:30.473Z,9.54
2023-05-08T04:12:45.234Z,10.03
2023-05-08T04:17:55.858Z,10.64
2023-05-08T04:22:58.886Z,11.08
2023-05-08T04:28:02.577Z,11.42
2023-05-08T04:33:07.765Z,11.79
2023-05-08T04:38:10.299Z,12.23
2023-05-08T04:43:12.424Z,12.58
2023-05-08T04:48:14.359Z,13.13
2023-05-08T04:53:16.240Z,13.90
2023-05-08T04:58:17.985Z,14.10
2023-05-08T05:03:19.962Z,14.49
2023-05-08T05:08:21.707Z,14.94
2023-05-08T05:13:23.728Z,15.14
2023-05-08T05:18:25.667Z,14.91
2023-05-08T05:23:28.803Z,15.41
2023-05-08T05:28:30.719Z,15.59
2023-05-08T05:33:32.474Z,15.68
2023-05-08T05:38:34.217Z,15.30
2023-05-08T05:43:36.051Z,14.35
2023-05-08T05:48:37.829Z,14.09
2023-05-08T05:53:40.487Z,14.10
2023-05-08T05:58:44.927Z,13.93
2023-05-08T06:03:47.513Z,13.84
2023-05-08T06:08:49.550Z,13.99
2023-05-08T06:13:51.148Z,13.32
2023-05-08T06:18:53.559Z,13.40
2023-05-08T06:23:55.479Z,13.35
2023-05-08T06:28:57.065Z,13.49
2023-05-08T06:33:58.677Z,13.29
2023-05-08T06:39:00.268Z,13.37
2023-05-08T06:44:01.894Z,13.78
2023-05-08T06:49:03.644Z,13.34
2023-05-08T06:54:08.626Z,13.28
2023-05-08T06:59:10.769Z,13.73
2023-05-08T07:04:12.719Z,13.66
2023-05-08T07:09:15.157Z,14.33
2023-05-08T07:14:16.877Z,14.34
2023-05-08T07:19:20.509Z,13.95
2023-05-08T07:24:24.696Z,15.16
2023-05-08T07:29:27.045Z,15.84
2023-05-08T07:34:28.847Z,15.07
2023-05-08T07:39:30.542Z,15.52
2023-05-08T07:44:43.524Z,15.74
2023-05-08T07:49:53.346Z,16.06
2023-05-08T07:54:55.145Z,15.65
2023-05-08T08:00:01.929Z,14.87
2023-05-08T08:05:15.219Z,15.70
2023-05-08T08:10:17.486Z,15.49
2023-05-08T08:15:19.358Z,15.38
2023-05-08T08:20:21.262Z,16.07
2023-05-08T08:25:22.967Z,16.37
2023-05-08T08:30:24.723Z,15.44
2023-05-08T08:35:29.367Z,14.63
2023-05-08T08:40:31.111Z,14.91
2023-05-08T08:45:32.826Z,14.80
2023-05-08T08:50:36.388Z,16.16
2023-05-08T08:55:45.587Z,16.01
2023-05-08T09:00:48.351Z,16.49
2023-05-08T09:05:50.526Z,17.36
2023-05-08T09:10:54.867Z,17.42
2023-05-08T09:15:58.361Z,17.60
2023-05-08T09:21:01.815Z,17.61
2023-05-08T09:26:03.481Z,18.49
2023-05-08T09:31:06.215Z,18.70
2023-05-08T09:36:27.878Z,18.60
2023-05-08T09:41:29.794Z,19.37
2023-05-08T09:46:34.026Z,18.33
2023-05-08T09:51:35.705Z,17.30
2023-05-08T09:56:39.594Z,18.16
2023-05-08T10:01:42.057Z,18.79
2023-05-08T10:06:43.921Z,19.45
2023-05-08T10:11:52.632Z,18.98
2023-05-08T10:16:54.874Z,19.27
2023-05-08T10:22:00.019Z,20.04
2023-05-08T10:27:13.917Z,20.38
2023-05-08T10:32:19.090Z,19.38
2023-05-08T10:37:21.206Z,20.46
2023-05-08T10:42:23.095Z,20.56
2023-05-08T10:47:24.647Z,18.56
2023-05-08T10:52:29.523Z,20.19
2023-05-08T10:57:31.800Z,20.15
2023-05-08T11:02:37.031Z,20.12
2023-05-08T11:07:58.780Z,20.72
2023-05-08T11:13:01.579Z,21.40
2023-05-08T11:18:07.148Z,20.86
2023-05-08T11:23:22.756Z,21.41
2023-05-08T11:28:24.625Z,19.93
2023-05-08T11:33:31.432Z,19.05
2023-05-08T11:38:38.118Z,19.45
2023-05-08T11:44:14.899Z,20.21
2023-05-08T11:49:19.655Z,21.63
2023-05-08T11:54:26.365Z,21.32
2023-05-08T11:59:28.039Z,20.91
2023-05-08T12:04:29.762Z,21.91
2023-05-08T12:09:31.608Z,20.83
2023-05-08T12:14:34.800Z,20.09
2023-05-08T12:19:36.518Z,20.54
2023-05-08T12:24:39.324Z,21.65
2023-05-08T12:29:45.208Z,21.79
2023-05-08T12:34:46.901Z,22.34
2023-05-08T12:39:48.510Z,23.21
2023-05-08T12:44:51.724Z,23.41
2023-05-08T12:49:58.122Z,21.16
2023-05-08T12:54:59.723Z,22.05
2023-05-08T13:00:05.216Z,23.07
2023-05-08T13:05:07.065Z,22.68
2023-05-08T13:10:09.332Z,22.34
2023-05-08T13:15:11.851Z,21.96
2023-05-08T13:20:13.737Z,22.00
2023-05-08T13:25:15.963Z,21.88
2023-05-08T13:30:18.050Z,20.94
2023-05-08T13:35:20.770Z,22.33
2023-05-08T13:40:22.558Z,21.66
2023-05-08T13:45:24.439Z,22.36
2023-05-08T13:50:26.179Z,22.45
2023-05-08T13:55:27.770Z,20.64
2023-05-08T14:00:30.209Z,19.77
2023-05-08T14:05:31.832Z,20.26
2023-05-08T14:10:33.686Z,20.58
2023-05-08T14:15:37.822Z,20.94
2023-05-08T14:20:39.588Z,20.14
2023-05-08T14:25:41.180Z,20.28
2023-05-08T14:30:42.986Z,20.28
2023-05-08T14:35:45.923Z,20.77
2023-05-08T14:40:50.869Z,21.06
2023-05-08T14:45:52.478Z,21.29
2023-05-08T14:50:54.392Z,20.67
2023-05-08T14:55:56.418Z,20.61
2023-05-08T15:00:58.287Z,20.42
2023-05-08T15:05:59.917Z,20.74
2023-05-08T15:11:01.724Z,19.97
2023-05-08T15:16:03.429Z,19.85
2023-05-08T15:21:05.584Z,20.16
2023-05-08T15:26:08.429Z,20.37
2023-05-08T15:31:10.048Z,19.96
2023-05-08T15:36:13.476Z,20.01
2023-05-08T15:41:15.680Z,20.13
2023-05-08T15:46:17.685Z,20.33
2023-05-08T15:51:19.476Z,20.26
2023-05-08T15:56:24.455Z,20.79
2023-05-08T16:01:26.191Z,20.46
2023-05-08T16:06:28.001Z,19.69
2023-05-08T16:11:32.801Z,20.09
2023-05-08T16:16:34.452Z,20.07
2023-05-08T16:21:36.122Z,20.16
2023-05-08T16:26:37.728Z,20.54
2023-05-08T16:31:39.437Z,20.88
2023-05-08T16:36:41.280Z,21.00
2023-05-08T16:41:42.909Z,20.85
2023-05-08T16:46:44.564Z,20.36
2023-05-08T16:51:46.246Z,20.40
2023-05-08T16:56:48.207Z,20.37
2023-05-08T17:01:49.824Z,20.16
2023-05-08T17:06:51.628Z,19.73
2023-05-08T17:11:53.734Z,19.30
2023-05-08T17:16:55.484Z,19.14
2023-05-08T17:21:59.470Z,18.72
2023-05-08T17:27:01.533Z,18.22
2023-05-08T17:32:03.263Z,18.13
2023-05-08T17:37:04.926Z,17.83
2023-05-08T17:42:06.545Z,17.10
2023-05-08T17:47:09.210Z,16.82
2023-05-08T17:52:11.092Z,16.39
2023-05-08T17:57:12.683Z,16.33
2023-05-08T18:02:14.282Z,16.38
2023-05-08T18:07:16.001Z,16.01
2023-05-08T18:12:17.896Z,15.61
2023-05-08T18:17:20.586Z,15.34
2023-05-08T18:22:22.496Z,15.14
2023-05-08T18:27:24.492Z,14.80
2023-05-08T18:32:26.130Z,14.81
2023-05-08T18:37:28.733Z,14.68
2023-05-08T18:42:30.482Z,14.80
2023-05-08T18:47:32.789Z,14.74
2023-05-08T18:52:34.404Z,14.52
2023-05-08T18:57:36.089Z,14.41
2023-05-08T19:02:37.745Z,14.22
2023-05-08T19:07:39.715Z,14.20
2023-05-08T19:12:41.487Z,14.24
2023-05-08T19:17:43.360Z,14.28
2023-05-08T19:22:46.756Z,14.38
2023-05-08T19:27:48.680Z,14.41
2023-05-08T19:32:50.515Z,14.37
2023-05-08T19:37:52.082Z,14.18
2023-05-08T19:42:53.674Z,14.03
2023-05-08T19:47:55.361Z,13.99
2023-05-08T19:52:57.043Z,13.87
2023-05-08T19:57:59.763Z,13.73
2023-05-08T20:03:01.750Z,13.65
2023-05-08T20:08:03.518Z,13.54
2023-05-08T20:13:05.611Z,13.43
2023-05-08T20:18:07.450Z,13.25
2023-05-08T20:23:09.266Z,13.21
2023-05-08T20:28:10.863Z,13.09
2023-05-08T20:33:12.467Z,12.89
2023-05-08T20:38:16.155Z,12.83
2023-05-08T20:43:17.841Z,12.65
2023-05-08T20:48:19.734Z,12.39
2023-05-08T20:53:21.318Z,12.31
2023-05-08T20:58:23.093Z,12.33
2023-05-08T21:03:24.874Z,12.30
2023-05-08T21:08:26.573Z,12.24
2023-05-08T21:13:28.419Z,12.18
2023-05-08T21:18:30.275Z,11.83
2023-05-08T21:23:31.969Z,11.83
2023-05-08T21:28:34.223Z,11.77
2023-05-08T21:33:35.954Z,11.70
2023-05-08T21:38:37.560Z,11.66
2023-05-08T21:43:39.398Z,11.53
2023-05-08T21:48:40.987Z,11.49
2023-05-08T21:53:42.615Z,11.37
2023-05-08T21:58:44.253Z,11.29
2023-05-08T22:03:45.894Z,11.17
2023-05-08T22:08:47.963Z,11.12
2023-05-08T22:13:49.552Z,11.05
2023-05-08T22:18:51.124Z,10.94
2023-05-08T22:23:52.746Z,10.89
2023-05-08T22:28:55.282Z,10.82
2023-05-08T22:33:58.341Z,10.75
2023-05-08T22:39:01.120Z,10.62
2023-05-08T22:44:03.046Z,10.56
2023-05-08T22:49:04.681Z,10.49
2023-05-08T22:54:06.560Z,10.44
2023-05-08T22:59:08.208Z,10.36
2023-05-08T23:04:09.888Z,10.32
2023-05-08T23:09:11.476Z,10.23
2023-05-08T23:14:13.186Z,10.14
2023-05-08T23:19:15.687Z,10.05
2023-05-08T23:24:18.293Z,10.02
2023-05-08T23:29:20.938Z,9.97
2023-05-08T23:34:22.511Z,9.85
2023-05-08T23:39:24.519Z,9.74
2023-05-08T23:44:26.100Z,9.67
2023-05-08T23:49:29.072Z,9.60
2023-05-08T23:54:30.650Z,9.54
2023-05-08T23:59:32.240Z,9.46
